Time;durP1;ratioP1;P1;durP2;ratioP2;P2;SDS_P1;SDS_P2;PMS_P1;PMS_P2;Temp;Humidity;BMP_temperature;BMP_pressure;BME280_temperature;BME280_humidity;BME280_pressure;Samples;Min_cycle;Max_cycle;Signal;HPM_P1;HPM_P2
2021/08/16 00:02:05;;;;;;;;;;;19.50;70.00;;;;;;5156512;27;20052;-75
2021/08/16 00:04:36;;;;;;;;;;;19.50;70.00;;;;;;5156392;27;20382;-75
2021/08/16 00:07:10;;;;;;;;;;;19.50;70.00;;;;;;5156799;27;20063;-75
2021/08/16 00:09:39;;;;;;;;;;;19.60;70.10;;;;;;5156430;27;19927;-75
2021/08/16 00:12:11;;;;;;;;;;;19.60;70.00;;;;;;5156073;27;19927;-75
2021/08/16 00:14:58;;;;;;;;;;;19.60;70.20;;;;;;5156139;27;20409;-74
2021/08/16 00:17:33;;;;;;;;;;;19.60;70.10;;;;;;5155207;27;19927;-75
2021/08/16 00:20:04;;;;;;;;;;;19.50;70.20;;;;;;5155998;27;19970;-75
2021/08/16 00:22:37;;;;;;;;;;;19.50;70.20;;;;;;5156258;27;20400;-75
2021/08/16 00:25:08;;;;;;;;;;;19.50;70.40;;;;;;5156503;27;19927;-75
2021/08/16 00:27:37;;;;;;;;;;;19.50;70.40;;;;;;5155983;27;19923;-75
2021/08/16 00:30:06;;;;;;;;;;;19.50;70.40;;;;;;5155843;27;19984;-75
2021/08/16 00:32:35;;;;;;;;;;;19.50;70.40;;;;;;5137997;27;20370;-75
2021/08/16 00:35:05;;;;;;;;;;;19.50;70.30;;;;;;5155691;27;19977;-75
2021/08/16 00:37:35;;;;;;;;;;;19.50;70.40;;;;;;5155947;27;19930;-75
2021/08/16 00:40:04;;;;;;;;;;;19.50;70.40;;;;;;5155645;27;20369;-74
2021/08/16 00:42:36;;;;;;;;;;;19.50;70.40;;;;;;5155774;27;20264;-74
2021/08/16 00:45:07;;;;;;;;;;;19.50;70.40;;;;;;5155709;27;20310;-74
2021/08/16 00:47:36;;;;;;;;;;;19.50;70.40;;;;;;5155450;27;20370;-75
2021/08/16 00:50:06;;;;;;;;;;;19.50;70.30;;;;;;5147041;27;19978;-75
2021/08/16 00:52:37;;;;;;;;;;;19.50;70.10;;;;;;5138026;27;19923;-75
2021/08/16 00:55:09;;;;;;;;;;;19.50;70.10;;;;;;5155651;27;19927;-74
2021/08/16 00:57:39;;;;;;;;;;;19.50;70.10;;;;;;5155350;27;19927;-75
2021/08/16 01:00:08;;;;;;;;;;;19.50;70.10;;;;;;5155337;27;19923;-75
2021/08/16 01:02:39;;;;;;;;;;;19.50;70.30;;;;;;5155266;27;20392;-75
2021/08/16 01:05:11;;;;;;;;;;;19.50;70.20;;;;;;5155282;27;19923;-74
2021/08/16 01:07:43;;;;;;;;;;;19.50;70.20;;;;;;5155187;27;20108;-75
2021/08/16 01:10:21;;;;;;;;;;;19.50;70.10;;;;;;5155180;27;19934;-74
2021/08/16 01:13:17;;;;;;;;;;;19.50;70.00;;;;;;5155104;27;20289;-75
2021/08/16 01:15:54;;;;;;;;;;;19.50;70.00;;;;;;5153798;27;20002;-74
2021/08/16 01:18:50;;;;;;;;;;;19.40;70.10;;;;;;5153372;27;19966;-74
2021/08/16 01:21:32;;;;;;;;;;;19.50;70.50;;;;;;5155065;27;20286;-75
2021/08/16 01:24:01;;;;;;;;;;;19.40;70.70;;;;;;5155090;27;19974;-75
2021/08/16 01:26:32;;;;;;;;;;;19.40;71.20;;;;;;5136946;27;20416;-75
2021/08/16 01:29:14;;;;;;;;;;;19.40;71.60;;;;;;5154596;27;19930;-74
2021/08/16 01:31:48;;;;;;;;;;;19.30;71.90;;;;;;5154819;27;19927;-74
2021/08/16 01:34:36;;;;;;;;;;;19.30;72.30;;;;;;5154431;27;19922;-75
2021/08/16 01:37:08;;;;;;;;;;;19.30;72.60;;;;;;5154552;27;19923;-75
2021/08/16 01:39:50;;;;;;;;;;;19.20;72.80;;;;;;5154923;27;20386;-75
2021/08/16 01:42:24;;;;;;;;;;;19.20;73.00;;;;;;5137504;27;19930;-74
2021/08/16 01:44:59;;;;;;;;;;;19.20;73.10;;;;;;5154413;27;19970;-75
2021/08/16 01:47:52;;;;;;;;;;;19.10;73.20;;;;;;5153541;27;20390;-74
2021/08/16 01:50:31;;;;;;;;;;;19.20;73.40;;;;;;5154540;27;20443;-74
2021/08/16 01:53:05;;;;;;;;;;;19.10;73.40;;;;;;5140807;27;19923;-74
2021/08/16 01:55:40;;;;;;;;;;;19.10;73.50;;;;;;5153892;27;20375;-75
2021/08/16 01:58:16;;;;;;;;;;;19.10;73.50;;;;;;5153933;27;20297;-75
2021/08/16 02:00:45;;;;;;;;;;;19.10;73.60;;;;;;5154183;27;19930;-74
2021/08/16 02:03:18;;;;;;;;;;;19.10;73.60;;;;;;5154480;27;19923;-75
2021/08/16 02:05:48;;;;;;;;;;;19.10;73.60;;;;;;5154386;27;19930;-75
2021/08/16 02:08:15;;;;;;;;;;;19.10;73.60;;;;;;5153968;27;19970;-74
2021/08/16 02:10:42;;;;;;;;;;;19.20;73.80;;;;;;5154071;27;19924;-75
2021/08/16 02:13:10;;;;;;;;;;;19.20;73.90;;;;;;5153928;27;19927;-74
2021/08/16 02:15:38;;;;;;;;;;;19.20;73.90;;;;;;5153603;27;19934;-75
2021/08/16 02:18:05;;;;;;;;;;;19.20;74.00;;;;;;5153724;27;20005;-75
2021/08/16 02:20:34;;;;;;;;;;;19.20;74.20;;;;;;5153960;27;19923;-75
2021/08/16 02:23:05;;;;;;;;;;;19.20;74.30;;;;;;5153916;27;19950;-74
2021/08/16 02:25:32;;;;;;;;;;;19.10;74.30;;;;;;5152790;27;19923;-75
2021/08/16 02:28:01;;;;;;;;;;;19.20;74.20;;;;;;5153829;27;19967;-74
2021/08/16 02:30:28;;;;;;;;;;;19.20;74.10;;;;;;5153765;27;20321;-75
2021/08/16 02:32:56;;;;;;;;;;;19.20;74.10;;;;;;5135242;27;20397;-75
2021/08/16 02:35:44;;;;;;;;;;;19.20;74.10;;;;;;5152453;27;20019;-75
2021/08/16 02:38:15;;;;;;;;;;;19.20;74.10;;;;;;5154001;27;20398;-74
2021/08/16 02:40:42;;;;;;;;;;;19.20;74.10;;;;;;5153646;27;19977;-74
2021/08/16 02:43:10;;;;;;;;;;;19.20;74.20;;;;;;5154024;27;19923;-74
2021/08/16 02:45:36;;;;;;;;;;;19.20;74.40;;;;;;5153711;27;20010;-75
2021/08/16 02:48:04;;;;;;;;;;;19.20;74.60;;;;;;5153956;27;19927;-74
2021/08/16 02:50:31;;;;;;;;;;;19.20;74.70;;;;;;5134752;27;19930;-74
2021/08/16 02:53:06;;;;;;;;;;;19.20;74.70;;;;;;5153494;27;19923;-74
2021/08/16 02:55:33;;;;;;;;;;;19.20;74.60;;;;;;5153349;27;20278;-74
2021/08/16 02:58:03;;;;;;;;;;;19.20;74.50;;;;;;5153243;27;19968;-75
2021/08/16 03:00:30;;;;;;;;;;;19.20;74.50;;;;;;5153424;27;19946;-75
2021/08/16 03:03:04;;;;;;;;;;;19.20;74.70;;;;;;5134617;27;20420;-75
2021/08/16 03:05:34;;;;;;;;;;;19.20;75.30;;;;;;5134958;27;20115;-75
2021/08/16 03:08:05;;;;;;;;;;;19.20;74.40;;;;;;5134666;27;19931;-75
2021/08/16 03:10:32;;;;;;;;;;;19.20;74.30;;;;;;5153588;27;19946;-75
2021/08/16 03:13:05;;;;;;;;;;;19.30;74.30;;;;;;5153248;27;19924;-74
2021/08/16 03:15:33;;;;;;;;;;;19.30;74.30;;;;;;5134837;27;19968;-75
2021/08/16 03:18:00;;;;;;;;;;;19.30;74.20;;;;;;5153136;27;19929;-74
2021/08/16 03:20:27;;;;;;;;;;;19.30;74.20;;;;;;5153573;27;19923;-74
2021/08/16 03:22:53;;;;;;;;;;;19.30;74.30;;;;;;5134719;27;19976;-75
2021/08/16 03:25:19;;;;;;;;;;;19.30;74.40;;;;;;5153413;27;19931;-74
2021/08/16 03:27:46;;;;;;;;;;;19.20;74.30;;;;;;5154270;27;19923;-74
2021/08/16 03:30:13;;;;;;;;;;;19.20;74.30;;;;;;5156716;27;20276;-74
2021/08/16 03:32:39;;;;;;;;;;;19.30;74.30;;;;;;5157090;27;19964;-74
2021/08/16 03:35:06;;;;;;;;;;;19.30;74.30;;;;;;5157307;27;19923;-75
2021/08/16 03:37:34;;;;;;;;;;;19.30;74.30;;;;;;5157181;27;19923;-75
2021/08/16 03:40:02;;;;;;;;;;;19.30;74.30;;;;;;5156821;27;19923;-74
2021/08/16 03:42:29;;;;;;;;;;;19.30;74.40;;;;;;5156981;27;19931;-75
2021/08/16 03:44:55;;;;;;;;;;;19.30;74.40;;;;;;5156900;27;19923;-73
2021/08/16 03:47:22;;;;;;;;;;;19.30;74.40;;;;;;5156760;27;19930;-74
2021/08/16 03:49:49;;;;;;;;;;;19.20;74.50;;;;;;5156985;27;19930;-74
2021/08/16 03:52:15;;;;;;;;;;;19.20;74.50;;;;;;5156380;27;19923;-75
2021/08/16 03:54:42;;;;;;;;;;;19.20;74.80;;;;;;5156691;27;19930;-75
2021/08/16 03:57:08;;;;;;;;;;;19.20;74.90;;;;;;5156568;27;19996;-74
2021/08/16 03:59:35;;;;;;;;;;;19.20;75.00;;;;;;5156191;27;20055;-74
2021/08/16 04:02:02;;;;;;;;;;;19.20;75.00;;;;;;5156509;27;20302;-75
2021/08/16 04:04:30;;;;;;;;;;;19.20;75.00;;;;;;5156397;27;19923;-75
2021/08/16 04:06:57;;;;;;;;;;;19.20;75.00;;;;;;5156350;27;20391;-74
2021/08/16 04:09:24;;;;;;;;;;;19.20;75.10;;;;;;5156120;27;20005;-75
2021/08/16 04:11:50;;;;;;;;;;;19.20;75.20;;;;;;5138234;27;19945;-74
2021/08/16 04:14:18;;;;;;;;;;;19.20;75.20;;;;;;5156547;27;19934;-75
2021/08/16 04:16:44;;;;;;;;;;;19.20;75.10;;;;;;5154446;27;19927;-74
2021/08/16 04:19:21;;;;;;;;;;;19.20;75.30;;;;;;5156431;27;19924;-74
2021/08/16 04:22:13;;;;;;;;;;;19.20;75.30;;;;;;5141462;27;20413;-74
2021/08/16 04:25:08;;;;;;;;;;;19.20;75.20;;;;;;5155430;27;20294;-75
2021/08/16 04:27:40;;;;;;;;;;;19.20;75.20;;;;;;5138159;27;19923;-75
2021/08/16 04:30:10;;;;;;;;;;;19.20;75.10;;;;;;5155708;27;19970;-75
2021/08/16 04:32:38;;;;;;;;;;;19.20;75.10;;;;;;5155434;27;19958;-75
2021/08/16 04:35:05;;;;;;;;;;;19.20;75.10;;;;;;5156050;27;19975;-74
2021/08/16 04:37:39;;;;;;;;;;;19.20;75.20;;;;;;5155167;27;19942;-74
2021/08/16 04:40:07;;;;;;;;;;;19.20;75.10;;;;;;5154900;27;19975;-74
2021/08/16 04:42:33;;;;;;;;;;;19.20;75.00;;;;;;5154925;27;19966;-75
2021/08/16 04:45:00;;;;;;;;;;;19.20;75.10;;;;;;5137283;27;19927;-74
2021/08/16 04:47:27;;;;;;;;;;;19.20;75.10;;;;;;5155622;27;19930;-75
2021/08/16 04:49:57;;;;;;;;;;;19.20;75.10;;;;;;5155823;27;19930;-75
2021/08/16 04:52:24;;;;;;;;;;;19.20;75.10;;;;;;5155476;27;19931;-75
2021/08/16 04:54:51;;;;;;;;;;;19.20;75.10;;;;;;5155474;27;19923;-74
2021/08/16 04:57:31;;;;;;;;;;;19.20;75.20;;;;;;5155580;27;19981;-74
2021/08/16 04:59:57;;;;;;;;;;;19.20;75.10;;;;;;5140911;27;19927;-75
2021/08/16 05:02:24;;;;;;;;;;;19.20;75.20;;;;;;5155790;27;19930;-75
2021/08/16 05:04:57;;;;;;;;;;;19.20;75.20;;;;;;5155246;27;19927;-75
2021/08/16 05:07:24;;;;;;;;;;;19.20;75.50;;;;;;5155196;27;19933;-75
2021/08/16 05:09:51;;;;;;;;;;;19.20;75.50;;;;;;5155211;27;19923;-75
2021/08/16 05:12:18;;;;;;;;;;;19.20;75.80;;;;;;5155343;27;19979;-75
2021/08/16 05:14:45;;;;;;;;;;;19.10;75.90;;;;;;5154785;27;20317;-75
2021/08/16 05:17:12;;;;;;;;;;;19.10;76.00;;;;;;5136533;27;20361;-74
2021/08/16 05:19:39;;;;;;;;;;;19.10;76.10;;;;;;5154749;27;19970;-75
2021/08/16 05:22:06;;;;;;;;;;;19.10;76.20;;;;;;5154263;27;19923;-75
2021/08/16 05:24:33;;;;;;;;;;;19.10;76.10;;;;;;5154680;27;20013;-75
2021/08/16 05:27:00;;;;;;;;;;;19.10;76.10;;;;;;5153969;27;20294;-75
2021/08/16 05:29:27;;;;;;;;;;;19.10;76.10;;;;;;5154946;27;19930;-75
2021/08/16 05:31:54;;;;;;;;;;;19.20;76.20;;;;;;5154678;27;19930;-75
2021/08/16 05:34:21;;;;;;;;;;;19.20;76.30;;;;;;5154992;27;19927;-75
2021/08/16 05:36:48;;;;;;;;;;;19.10;76.50;;;;;;5153997;27;20343;-75
2021/08/16 05:39:15;;;;;;;;;;;19.10;76.50;;;;;;5154442;27;19927;-75
2021/08/16 05:41:41;;;;;;;;;;;19.10;76.60;;;;;;5154646;27;19979;-75
2021/08/16 05:44:09;;;;;;;;;;;19.10;76.60;;;;;;5155071;27;20017;-75
2021/08/16 05:46:35;;;;;;;;;;;19.10;76.80;;;;;;5154064;27;19934;-75
2021/08/16 05:49:02;;;;;;;;;;;19.10;77.00;;;;;;5154370;27;20453;-75
2021/08/16 05:51:29;;;;;;;;;;;19.10;77.00;;;;;;5153461;27;19979;-75
2021/08/16 05:53:56;;;;;;;;;;;19.10;77.20;;;;;;5154501;27;19949;-75
2021/08/16 05:56:23;;;;;;;;;;;19.10;77.40;;;;;;5154402;27;19923;-75
2021/08/16 05:58:50;;;;;;;;;;;19.10;77.90;;;;;;5153910;27;19931;-75
2021/08/16 06:01:16;;;;;;;;;;;19.00;78.00;;;;;;5154438;27;19967;-75
2021/08/16 06:03:43;;;;;;;;;;;19.10;78.30;;;;;;5154270;27;19927;-75
2021/08/16 06:06:10;;;;;;;;;;;19.10;78.70;;;;;;5153118;27;19954;-74
2021/08/16 06:08:37;;;;;;;;;;;19.00;79.00;;;;;;5154160;27;19945;-75
2021/08/16 06:11:04;;;;;;;;;;;19.00;79.30;;;;;;5153548;27;19934;-75
2021/08/16 06:13:31;;;;;;;;;;;18.90;79.30;;;;;;5154112;27;19930;-75
2021/08/16 06:15:59;;;;;;;;;;;18.90;79.40;;;;;;5154213;27;19948;-75
2021/08/16 06:18:26;;;;;;;;;;;18.90;79.40;;;;;;5153751;27;19923;-75
2021/08/16 06:20:54;;;;;;;;;;;18.90;79.50;;;;;;5081172;27;19973;-75
2021/08/16 06:23:21;;;;;;;;;;;18.90;79.50;;;;;;5153893;27;19923;-75
2021/08/16 06:25:49;;;;;;;;;;;18.90;79.40;;;;;;5153979;27;19923;-75
2021/08/16 06:28:15;;;;;;;;;;;18.90;79.10;;;;;;5153649;27;19935;-75
2021/08/16 06:30:43;;;;;;;;;;;18.90;78.50;;;;;;5153863;27;19923;-75
2021/08/16 06:33:14;;;;;;;;;;;18.90;78.30;;;;;;5153722;27;20413;-75
2021/08/16 06:35:41;;;;;;;;;;;18.90;78.20;;;;;;5153510;27;19927;-75
2021/08/16 06:38:21;;;;;;;;;;;19.00;77.90;;;;;;5153597;27;20263;-75
2021/08/16 06:40:49;;;;;;;;;;;19.00;77.50;;;;;;5153536;27;20421;-75
2021/08/16 06:43:17;;;;;;;;;;;19.10;77.30;;;;;;5083047;27;20018;-75
2021/08/16 06:45:45;;;;;;;;;;;19.10;77.10;;;;;;5153407;27;19927;-76
2021/08/16 06:48:13;;;;;;;;;;;19.20;76.80;;;;;;5153872;27;19923;-77
2021/08/16 06:50:40;;;;;;;;;;;19.30;76.00;;;;;;5153237;27;19968;-76
2021/08/16 06:53:15;;;;;;;;;;;19.30;75.40;;;;;;5153904;27;20009;-76
2021/08/16 06:55:44;;;;;;;;;;;19.40;74.90;;;;;;5153476;27;19923;-75
2021/08/16 06:58:11;;;;;;;;;;;19.40;74.00;;;;;;5153608;27;19923;-75
2021/08/16 07:00:41;;;;;;;;;;;19.40;73.70;;;;;;5153682;27;19968;-76
2021/08/16 07:03:07;;;;;;;;;;;19.40;73.30;;;;;;5156992;27;20279;-75
2021/08/16 07:05:34;;;;;;;;;;;19.50;73.30;;;;;;5157256;27;19927;-75
2021/08/16 07:08:00;;;;;;;;;;;19.70;72.80;;;;;;5157493;27;19929;-75
2021/08/16 07:10:26;;;;;;;;;;;19.80;72.60;;;;;;5157730;27;19923;-75
2021/08/16 07:12:58;;;;;;;;;;;20.00;72.30;;;;;;5157492;27;19927;-74
2021/08/16 07:15:25;;;;;;;;;;;20.20;71.90;;;;;;5157372;27;20438;-75
2021/08/16 07:17:52;;;;;;;;;;;20.50;71.10;;;;;;5156951;27;20018;-75
2021/08/16 07:20:19;;;;;;;;;;;20.80;69.30;;;;;;5157515;27;20445;-75
2021/08/16 07:22:46;;;;;;;;;;;21.00;68.50;;;;;;5138260;27;19923;-75
2021/08/16 07:25:14;;;;;;;;;;;21.40;67.50;;;;;;5157262;27;20009;-75
2021/08/16 07:27:40;;;;;;;;;;;21.80;65.90;;;;;;5157236;27;19923;-75
2021/08/16 07:30:07;;;;;;;;;;;22.30;62.50;;;;;;5156416;27;19945;-75
2021/08/16 07:32:34;;;;;;;;;;;22.70;62.20;;;;;;5083922;27;20309;-75
2021/08/16 07:35:01;;;;;;;;;;;23.10;60.90;;;;;;5156681;27;19948;-74
2021/08/16 07:37:27;;;;;;;;;;;23.60;59.80;;;;;;5157109;27;19949;-75
2021/08/16 07:39:54;;;;;;;;;;;24.20;58.60;;;;;;5157031;27;20381;-74
2021/08/16 07:42:23;;;;;;;;;;;24.80;56.30;;;;;;5156651;27;20417;-75
2021/08/16 07:44:51;;;;;;;;;;;25.30;54.70;;;;;;5156741;27;19972;-75
2021/08/16 07:47:17;;;;;;;;;;;25.80;53.20;;;;;;5156795;27;19923;-74
2021/08/16 07:49:44;;;;;;;;;;;26.20;52.00;;;;;;5156707;27;20378;-74
2021/08/16 07:52:10;;;;;;;;;;;26.50;50.90;;;;;;5156763;27;19930;-75
2021/08/16 07:54:37;;;;;;;;;;;26.60;50.50;;;;;;5157056;27;20286;-75
2021/08/16 07:57:04;;;;;;;;;;;26.90;50.30;;;;;;5156494;27;19927;-75
2021/08/16 07:59:31;;;;;;;;;;;27.20;49.20;;;;;;5156316;27;19971;-75
2021/08/16 08:01:57;;;;;;;;;;;27.40;46.00;;;;;;5083174;27;20052;-75
2021/08/16 08:04:24;;;;;;;;;;;27.40;45.20;;;;;;5156262;27;20351;-75
2021/08/16 08:06:50;;;;;;;;;;;27.50;46.00;;;;;;5156330;27;19923;-75
2021/08/16 08:09:17;;;;;;;;;;;27.70;45.70;;;;;;5156610;27;19959;-74
2021/08/16 08:11:43;;;;;;;;;;;28.10;44.30;;;;;;5156429;27;19930;-75
2021/08/16 08:14:10;;;;;;;;;;;28.20;42.40;;;;;;5155358;27;19923;-75
2021/08/16 08:16:37;;;;;;;;;;;28.20;43.10;;;;;;5156004;27;19923;-75
2021/08/16 08:19:03;;;;;;;;;;;28.50;43.50;;;;;;5155941;27;19923;-75
2021/08/16 08:21:29;;;;;;;;;;;28.80;42.60;;;;;;5156190;27;19938;-75
2021/08/16 08:23:56;;;;;;;;;;;28.90;41.20;;;;;;5156286;27;19934;-75
2021/08/16 08:26:22;;;;;;;;;;;28.70;39.70;;;;;;5156171;27;19979;-75
2021/08/16 08:28:49;;;;;;;;;;;28.60;39.80;;;;;;5156061;27;19969;-75
2021/08/16 08:31:15;;;;;;;;;;;28.30;39.80;;;;;;5155881;27;19923;-75
2021/08/16 08:33:42;;;;;;;;;;;28.30;39.80;;;;;;5155907;27;19923;-75
2021/08/16 08:36:08;;;;;;;;;;;28.30;40.90;;;;;;5155909;27;19927;-75
2021/08/16 08:38:35;;;;;;;;;;;28.50;41.00;;;;;;5156009;27;19956;-75
2021/08/16 08:41:03;;;;;;;;;;;28.50;39.60;;;;;;5155856;27;20306;-75
2021/08/16 08:43:30;;;;;;;;;;;28.30;39.50;;;;;;5155914;27;19927;-75
2021/08/16 08:45:56;;;;;;;;;;;28.10;39.10;;;;;;5155710;27;20412;-75
2021/08/16 08:48:23;;;;;;;;;;;28.00;39.70;;;;;;5155439;27;20019;-75
2021/08/16 08:50:50;;;;;;;;;;;28.00;39.10;;;;;;5155490;27;19927;-75
2021/08/16 08:53:18;;;;;;;;;;;27.70;38.70;;;;;;5155805;27;19927;-75
2021/08/16 08:55:46;;;;;;;;;;;27.20;39.40;;;;;;5155717;27;20475;-75
2021/08/16 08:58:13;;;;;;;;;;;27.00;39.70;;;;;;5155205;27;19937;-75
2021/08/16 09:00:40;;;;;;;;;;;26.70;40.40;;;;;;5155210;27;20006;-76
2021/08/16 09:03:10;;;;;;;;;;;26.50;40.30;;;;;;5155156;27;19923;-76
2021/08/16 09:05:50;;;;;;;;;;;25.80;40.90;;;;;;5154498;27;19974;-75
2021/08/16 09:08:22;;;;;;;;;;;25.20;42.40;;;;;;5155293;27;20292;-75
2021/08/16 09:10:51;;;;;;;;;;;24.40;44.40;;;;;;5155474;27;19930;-74
2021/08/16 09:13:25;;;;;;;;;;;24.30;45.30;;;;;;5154889;27;19991;-75
2021/08/16 09:15:53;;;;;;;;;;;24.00;45.30;;;;;;5155024;27;19966;-75
2021/08/16 09:18:30;;;;;;;;;;;24.10;46.40;;;;;;5154575;27;19934;-75
2021/08/16 09:20:56;;;;;;;;;;;24.70;44.80;;;;;;5155106;27;19927;-76
2021/08/16 09:23:23;;;;;;;;;;;25.60;43.70;;;;;;5154766;27;19930;-75
2021/08/16 09:25:53;;;;;;;;;;;26.20;41.70;;;;;;5155059;27;20382;-75
2021/08/16 09:28:32;;;;;;;;;;;26.10;40.80;;;;;;5154798;27;20389;-75
2021/08/16 09:31:10;;;;;;;;;;;25.40;41.90;;;;;;5155003;27;19923;-75
2021/08/16 09:33:37;;;;;;;;;;;25.10;43.20;;;;;;5154585;27;19931;-76
2021/08/16 09:36:04;;;;;;;;;;;25.30;43.00;;;;;;5154752;27;19927;-75
2021/08/16 09:38:33;;;;;;;;;;;25.30;42.20;;;;;;5154796;27;19923;-75
2021/08/16 09:40:59;;;;;;;;;;;24.90;42.60;;;;;;5154679;27;19930;-75
2021/08/16 09:43:26;;;;;;;;;;;24.70;43.10;;;;;;5154190;27;19930;-75
2021/08/16 09:45:53;;;;;;;;;;;25.40;43.30;;;;;;5154770;27;19968;-76
2021/08/16 09:48:20;;;;;;;;;;;26.50;42.80;;;;;;5154563;27;19934;-76
2021/08/16 09:50:48;;;;;;;;;;;27.20;40.20;;;;;;5154179;27;19931;-76
2021/08/16 09:53:18;;;;;;;;;;;28.20;39.30;;;;;;5135811;27;19923;-76
2021/08/16 09:55:46;;;;;;;;;;;28.90;35.30;;;;;;5154498;27;19987;-75
2021/08/16 09:58:15;;;;;;;;;;;28.30;35.00;;;;;;5153610;27;19923;-75
2021/08/16 10:00:42;;;;;;;;;;;28.00;36.90;;;;;;5154840;27;19923;-75
2021/08/16 10:03:13;;;;;;;;;;;27.80;37.40;;;;;;5153962;27;19923;-75
2021/08/16 10:05:40;;;;;;;;;;;27.50;37.80;;;;;;5154070;27;19934;-75
2021/08/16 10:08:10;;;;;;;;;;;27.10;37.70;;;;;;5153829;27;19923;-75
2021/08/16 10:10:38;;;;;;;;;;;26.40;38.70;;;;;;5154319;27;20445;-75
2021/08/16 10:13:10;;;;;;;;;;;26.00;40.30;;;;;;5153880;27;20009;-75
2021/08/16 10:15:44;;;;;;;;;;;25.50;41.20;;;;;;5154057;27;19927;-75
2021/08/16 10:18:16;;;;;;;;;;;25.00;42.30;;;;;;5153459;27;19923;-76
2021/08/16 10:20:47;;;;;;;;;;;24.60;43.40;;;;;;5154240;27;20283;-75
2021/08/16 10:23:17;;;;;;;;;;;24.30;44.30;;;;;;5154012;27;19925;-75
2021/08/16 10:25:45;;;;;;;;;;;24.00;45.30;;;;;;5152563;27;20372;-75
2021/08/16 10:28:26;;;;;;;;;;;23.60;45.90;;;;;;5152891;27;20298;-75
2021/08/16 10:30:53;;;;;;;;;;;23.40;46.70;;;;;;5153801;27;19965;-75
2021/08/16 10:33:20;;;;;;;;;;;23.10;47.40;;;;;;5153666;27;20393;-77
2021/08/16 10:35:47;;;;;;;;;;;22.80;47.90;;;;;;5153755;27;20023;-78
2021/08/16 10:38:15;;;;;;;;;;;22.50;48.70;;;;;;5153220;27;19923;-75
2021/08/16 10:40:44;;;;;;;;;;;22.40;49.10;;;;;;5153516;27;20317;-75
2021/08/16 10:43:14;;;;;;;;;;;22.20;49.90;;;;;;5153654;27;19923;-75
2021/08/16 10:45:45;;;;;;;;;;;22.10;50.60;;;;;;5153476;27;19927;-75
2021/08/16 10:48:19;;;;;;;;;;;22.10;51.10;;;;;;5153536;27;19930;-75
2021/08/16 10:50:46;;;;;;;;;;;22.20;51.50;;;;;;5153514;27;19935;-75
2021/08/16 10:53:16;;;;;;;;;;;22.50;51.80;;;;;;5153750;27;19967;-75
2021/08/16 10:55:43;;;;;;;;;;;22.80;50.90;;;;;;5153222;27;20018;-75
2021/08/16 10:58:11;;;;;;;;;;;23.00;49.60;;;;;;5153012;27;20359;-75
2021/08/16 11:00:38;;;;;;;;;;;23.20;49.30;;;;;;5153762;27;19923;-75
2021/08/16 11:03:08;;;;;;;;;;;23.30;49.30;;;;;;5153371;27;19970;-75
2021/08/16 11:05:36;;;;;;;;;;;23.40;49.40;;;;;;5134618;27;20339;-75
2021/08/16 11:08:08;;;;;;;;;;;23.50;49.30;;;;;;5153343;27;19957;-75
2021/08/16 11:10:36;;;;;;;;;;;23.50;49.10;;;;;;5153537;27;20010;-75
2021/08/16 11:13:18;;;;;;;;;;;23.60;49.20;;;;;;5153060;27;20358;-75
2021/08/16 11:15:46;;;;;;;;;;;23.80;49.30;;;;;;5153640;27;19927;-75
2021/08/16 11:18:16;;;;;;;;;;;24.00;47.60;;;;;;5152880;27;20354;-75
2021/08/16 11:20:44;;;;;;;;;;;24.00;48.10;;;;;;5153396;27;19982;-75
2021/08/16 11:23:19;;;;;;;;;;;24.00;48.20;;;;;;5153372;27;20382;-75
2021/08/16 11:25:53;;;;;;;;;;;24.10;48.30;;;;;;5153598;27;19927;-75
2021/08/16 11:28:27;;;;;;;;;;;24.10;48.00;;;;;;5153017;27;19923;-75
2021/08/16 11:31:04;;;;;;;;;;;24.00;48.00;;;;;;5153354;27;19930;-75
2021/08/16 11:33:32;;;;;;;;;;;24.00;48.20;;;;;;5153155;27;19931;-75
2021/08/16 11:36:17;;;;;;;;;;;23.90;48.00;;;;;;5153368;27;19929;-75
2021/08/16 11:38:52;;;;;;;;;;;23.80;48.20;;;;;;5150387;27;19958;-75
2021/08/16 11:41:19;;;;;;;;;;;23.80;49.50;;;;;;5152959;27;20302;-75
2021/08/16 11:43:46;;;;;;;;;;;23.80;49.20;;;;;;5153239;27;20386;-75
2021/08/16 11:46:16;;;;;;;;;;;23.80;49.20;;;;;;5152995;27;19923;-75
2021/08/16 11:48:53;;;;;;;;;;;23.70;49.20;;;;;;5153898;27;19923;-75
2021/08/16 11:51:20;;;;;;;;;;;23.70;49.50;;;;;;5156389;27;19933;-75
2021/08/16 11:53:48;;;;;;;;;;;23.50;49.70;;;;;;5156619;27;19973;-75
2021/08/16 11:56:14;;;;;;;;;;;23.30;50.20;;;;;;5156045;27;19923;-75
2021/08/16 11:58:43;;;;;;;;;;;23.20;50.70;;;;;;5156430;27;19923;-75
2021/08/16 12:01:13;;;;;;;;;;;23.20;51.40;;;;;;5156671;27;20618;-75
2021/08/16 12:03:48;;;;;;;;;;;23.10;51.60;;;;;;5156539;27;19923;-75
2021/08/16 12:06:16;;;;;;;;;;;23.00;51.80;;;;;;5137849;27;20013;-75
2021/08/16 12:08:44;;;;;;;;;;;23.00;53.00;;;;;;5156379;27;19930;-75
2021/08/16 12:11:11;;;;;;;;;;;23.10;53.20;;;;;;5156123;27;19930;-76
2021/08/16 12:13:39;;;;;;;;;;;23.30;53.10;;;;;;5156584;27;19923;-75
2021/08/16 12:16:27;;;;;;;;;;;23.50;51.40;;;;;;5156269;27;19937;-75
2021/08/16 12:18:56;;;;;;;;;;;23.60;50.00;;;;;;5154880;27;19968;-75
2021/08/16 12:21:23;;;;;;;;;;;23.50;50.20;;;;;;5155653;27;19930;-75
2021/08/16 12:23:53;;;;;;;;;;;23.30;51.10;;;;;;5155513;27;20297;-75
2021/08/16 12:26:35;;;;;;;;;;;23.10;51.10;;;;;;5083982;27;19923;-75
2021/08/16 12:29:17;;;;;;;;;;;22.90;50.60;;;;;;5143812;27;20400;-75
2021/08/16 12:31:45;;;;;;;;;;;22.80;50.90;;;;;;5155593;27;19923;-75
2021/08/16 12:34:14;;;;;;;;;;;22.80;51.90;;;;;;5138020;27;19923;-75
2021/08/16 12:36:51;;;;;;;;;;;22.90;52.90;;;;;;5136412;27;20009;-75
2021/08/16 12:39:19;;;;;;;;;;;23.10;52.70;;;;;;5143608;27;19923;-75
2021/08/16 12:41:48;;;;;;;;;;;23.10;51.30;;;;;;5155776;27;20394;-75
2021/08/16 12:44:16;;;;;;;;;;;23.00;50.80;;;;;;5137231;27;19927;-74
2021/08/16 12:46:45;;;;;;;;;;;22.90;50.50;;;;;;5149948;27;19923;-77
2021/08/16 12:49:19;;;;;;;;;;;22.70;50.70;;;;;;5156379;27;19923;-79
2021/08/16 12:51:45;;;;;;;;;;;22.70;51.60;;;;;;5156337;27;19927;-84
2021/08/16 12:54:12;;;;;;;;;;;22.70;52.00;;;;;;5155330;27;19976;-79
2021/08/16 12:56:39;;;;;;;;;;;22.80;51.10;;;;;;5154806;27;19931;-86
2021/08/16 12:59:08;;;;;;;;;;;22.80;50.70;;;;;;5144941;27;19938;-79
2021/08/16 13:01:34;;;;;;;;;;;22.80;51.20;;;;;;5148544;27;20013;-77
2021/08/16 13:04:01;;;;;;;;;;;22.90;51.00;;;;;;5149475;27;19927;-76
2021/08/16 13:06:28;;;;;;;;;;;22.90;49.90;;;;;;5142253;27;19923;-77
2021/08/16 13:08:54;;;;;;;;;;;22.90;49.70;;;;;;5137037;27;20302;-78
2021/08/16 13:11:21;;;;;;;;;;;22.80;50.10;;;;;;5141813;27;19969;-81
2021/08/16 13:13:49;;;;;;;;;;;22.70;49.60;;;;;;5139928;27;19949;-81
2021/08/16 13:16:16;;;;;;;;;;;22.70;50.20;;;;;;5139208;27;20458;-79
2021/08/16 13:18:43;;;;;;;;;;;22.90;50.70;;;;;;5135717;27;20050;-78
2021/08/16 13:21:10;;;;;;;;;;;22.90;50.30;;;;;;5137488;27;19945;-73
2021/08/16 13:23:37;;;;;;;;;;;23.00;50.00;;;;;;5137583;27;19924;-77
2021/08/16 13:26:04;;;;;;;;;;;23.00;49.20;;;;;;5136929;27;19931;-79
2021/08/16 13:28:34;;;;;;;;;;;23.10;49.90;;;;;;5145739;27;19923;-78
2021/08/16 13:31:01;;;;;;;;;;;23.10;48.80;;;;;;5142974;27;19922;-77
2021/08/16 13:33:28;;;;;;;;;;;23.10;48.80;;;;;;5143468;27;19929;-77
2021/08/16 13:36:11;;;;;;;;;;;23.20;48.80;;;;;;5148674;27;19923;-81
2021/08/16 13:38:49;;;;;;;;;;;23.20;48.20;;;;;;5152049;27;19930;-77
2021/08/16 13:41:21;;;;;;;;;;;23.20;48.10;;;;;;5153777;27;19923;-80
2021/08/16 13:43:58;;;;;;;;;;;23.20;48.10;;;;;;5154304;27;20439;-82
2021/08/16 13:46:49;;;;;;;;;;;23.20;48.30;;;;;;5153094;27;20013;-79
2021/08/16 13:49:19;;;;;;;;;;;23.20;47.80;;;;;;5140188;27;19923;-77
2021/08/16 13:52:03;;;;;;;;;;;23.40;47.00;;;;;;5153916;27;19965;-77
2021/08/16 13:54:30;;;;;;;;;;;23.40;47.00;;;;;;5154194;27;19927;-76
2021/08/16 13:57:28;;;;;;;;;;;23.40;47.30;;;;;;5154682;27;19975;-75
2021/08/16 14:00:07;;;;;;;;;;;23.20;47.50;;;;;;5141718;27;20279;-76
2021/08/16 14:02:57;;;;;;;;;;;23.20;47.60;;;;;;5145796;27;19931;-71
2021/08/16 14:05:33;;;;;;;;;;;23.20;47.40;;;;;;5144602;27;19930;-81
2021/08/16 14:08:24;;;;;;;;;;;23.20;47.60;;;;;;5107739;27;19976;-76
2021/08/16 14:11:09;;;;;;;;;;;23.20;48.80;;;;;;5153891;27;19960;-76
2021/08/16 14:13:52;;;;;;;;;;;23.20;48.90;;;;;;5155038;27;19923;-75
2021/08/16 14:16:22;;;;;;;;;;;23.30;48.40;;;;;;5154656;27;19931;-75
2021/08/16 14:19:01;;;;;;;;;;;23.30;48.20;;;;;;5154056;27;20414;-79
2021/08/16 14:22:04;;;;;;;;;;;23.40;48.30;;;;;;5126169;27;19923;-73
2021/08/16 14:24:37;;;;;;;;;;;23.40;47.30;;;;;;5150556;27;20400;-76
2021/08/16 14:27:05;;;;;;;;;;;23.30;46.60;;;;;;5154274;27;19923;-78
2021/08/16 14:29:33;;;;;;;;;;;23.30;47.10;;;;;;5143469;27;19924;-80
2021/08/16 14:32:01;;;;;;;;;;;23.30;47.40;;;;;;5152396;27;19962;-80
2021/08/16 14:34:50;;;;;;;;;;;23.20;47.30;;;;;;5153940;27;19930;-76